Time;durP1;ratioP1;P1;durP2;ratioP2;P2;SDS_P1;SDS_P2;PMS_P1;PMS_P2;Temp;Humidity;BMP_temperature;BMP_pressure;BME280_temperature;BME280_humidity;BME280_pressure;Samples;Min_cycle;Max_cycle;Signal;HPM_P1;HPM_P2
2022/04/16 00:02:04;;;;;;;23.08;14.68;;;11.10;99.90;;;;;;5032686;28;20042;-78
2022/04/16 00:04:30;;;;;;;26.35;14.50;;;11.00;99.90;;;;;;5016237;28;20100;-78
2022/04/16 00:06:57;;;;;;;27.15;14.25;;;11.00;99.90;;;;;;5016222;28;20128;-78
2022/04/16 00:09:23;;;;;;;26.27;15.30;;;10.80;99.90;;;;;;5015651;28;20053;-79
2022/04/16 00:11:49;;;;;;;27.02;15.45;;;10.90;99.90;;;;;;5033116;28;20180;-79
2022/04/16 00:14:15;;;;;;;25.80;15.25;;;10.90;99.90;;;;;;5036144;28;20060;-79
2022/04/16 00:16:41;;;;;;;25.55;13.95;;;11.00;99.90;;;;;;5036306;28;20051;-79
2022/04/16 00:19:09;;;;;;;25.52;13.73;;;11.10;99.90;;;;;;5036155;28;20046;-79
2022/04/16 00:21:38;;;;;;;22.55;13.63;;;10.90;99.90;;;;;;5036275;28;20049;-78
2022/04/16 00:24:04;;;;;;;23.25;13.73;;;10.90;99.90;;;;;;5036229;28;20120;-79
2022/04/16 00:26:29;;;;;;;30.80;16.20;;;10.80;99.90;;;;;;5036168;28;20045;-79
2022/04/16 00:28:58;;;;;;;22.67;13.93;;;10.70;99.90;;;;;;5036177;28;20438;-79
2022/04/16 00:31:23;;;;;;;23.10;14.00;;;10.70;99.90;;;;;;5036128;28;20053;-79
2022/04/16 00:33:49;;;;;;;25.52;16.27;;;10.60;99.90;;;;;;5019754;28;20417;-79
2022/04/16 00:36:15;;;;;;;29.60;14.95;;;10.60;99.90;;;;;;5036055;28;20099;-79
2022/04/16 00:38:42;;;;;;;26.00;15.73;;;10.60;99.90;;;;;;5035670;28;20392;-79
2022/04/16 00:41:08;;;;;;;25.17;15.02;;;10.50;99.90;;;;;;5035548;28;20515;-79
2022/04/16 00:43:34;;;;;;;28.67;16.23;;;10.60;99.90;;;;;;5035896;28;20092;-79
2022/04/16 00:46:00;;;;;;;25.55;15.57;;;10.60;99.90;;;;;;5035885;28;20085;-79
2022/04/16 00:48:26;;;;;;;28.98;16.38;;;10.70;99.90;;;;;;5019305;28;20463;-79
2022/04/16 00:50:54;;;;;;;28.90;17.33;;;10.60;99.90;;;;;;5035726;28;20373;-79
2022/04/16 00:53:21;;;;;;;29.83;17.15;;;10.50;99.90;;;;;;5035712;28;20200;-79
2022/04/16 00:55:47;;;;;;;25.33;16.10;;;10.50;99.90;;;;;;5035640;28;20103;-79
2022/04/16 00:58:12;;;;;;;27.88;16.35;;;10.60;99.90;;;;;;5035754;28;20091;-79
2022/04/16 01:00:38;;;;;;;26.02;15.10;;;10.60;99.90;;;;;;5035649;28;20452;-79
2022/04/16 01:03:06;;;;;;;24.40;15.82;;;10.70;99.90;;;;;;5035491;28;20041;-79
2022/04/16 01:05:31;;;;;;;27.55;14.75;;;10.70;99.90;;;;;;5035134;28;20046;-79
2022/04/16 01:07:59;;;;;;;24.85;14.82;;;10.80;99.90;;;;;;5035446;28;20049;-79
2022/04/16 01:10:28;;;;;;;30.38;17.02;;;10.70;99.90;;;;;;5034347;28;20104;-79
2022/04/16 01:12:58;;;;;;;26.13;15.40;;;10.50;99.90;;;;;;5035267;28;20053;-79
2022/04/16 01:15:25;;;;;;;30.40;17.30;;;10.40;99.90;;;;;;5035358;28;20454;-79
2022/04/16 01:17:51;;;;;;;30.92;17.60;;;10.30;99.90;;;;;;5035065;28;20116;-79
2022/04/16 01:20:18;;;;;;;27.77;16.80;;;10.30;99.90;;;;;;5035208;28;20400;-79
2022/04/16 01:22:45;;;;;;;24.55;14.88;;;10.40;99.90;;;;;;5034626;28;20655;-78
2022/04/16 01:25:11;;;;;;;24.88;15.60;;;10.30;99.90;;;;;;5018796;28;20049;-79
2022/04/16 01:27:43;;;;;;;24.25;13.90;;;10.20;99.90;;;;;;5034947;28;20063;-79
2022/04/16 01:30:10;;;;;;;20.98;13.60;;;10.10;99.90;;;;;;5035774;28;20053;-79
2022/04/16 01:32:36;;;;;;;20.35;13.30;;;10.00;99.90;;;;;;5034957;28;20053;-79
2022/04/16 01:35:05;;;;;;;22.63;13.50;;;9.90;99.90;;;;;;5034895;28;20084;-79
2022/04/16 01:37:34;;;;;;;23.92;13.90;;;9.90;99.90;;;;;;5034736;28;20053;-79
2022/04/16 01:40:05;;;;;;;21.50;13.75;;;9.80;99.90;;;;;;5035116;28;20127;-79
2022/04/16 01:42:32;;;;;;;24.25;14.00;;;9.70;99.90;;;;;;5034480;28;20091;-79
2022/04/16 01:45:05;;;;;;;24.05;15.23;;;9.70;99.90;;;;;;5034723;28;20084;-79
2022/04/16 01:47:31;;;;;;;31.90;16.50;;;9.70;99.90;;;;;;5034664;28;20057;-79
2022/04/16 01:50:00;;;;;;;26.65;14.50;;;9.70;99.90;;;;;;5034366;28;20041;-79
2022/04/16 01:52:26;;;;;;;29.67;17.15;;;9.60;99.90;;;;;;5034286;28;20049;-79
2022/04/16 01:54:52;;;;;;;26.83;16.13;;;9.60;99.90;;;;;;5034794;28;20115;-79
2022/04/16 01:57:21;;;;;;;23.60;14.13;;;9.60;99.90;;;;;;5034398;28;20067;-79
2022/04/16 01:59:48;;;;;;;23.83;15.05;;;9.70;99.90;;;;;;5018103;28;20556;-79
2022/04/16 02:02:17;;;;;;;30.00;16.50;;;9.70;99.90;;;;;;5017808;28;20365;-79
2022/04/16 02:04:43;;;;;;;27.30;16.35;;;9.70;99.90;;;;;;5018082;28;20041;-79
2022/04/16 02:07:09;;;;;;;27.58;15.57;;;9.60;99.90;;;;;;5034282;28;20052;-79
2022/04/16 02:09:35;;;;;;;25.65;15.57;;;9.60;99.90;;;;;;5033832;28;20500;-79
2022/04/16 02:12:01;;;;;;;24.98;14.88;;;9.50;99.90;;;;;;5033783;28;20057;-79
2022/04/16 02:14:27;;;;;;;25.73;15.55;;;9.60;99.90;;;;;;5034159;28;20477;-79
2022/04/16 02:16:53;;;;;;;26.70;15.93;;;9.60;99.90;;;;;;5034346;28;20055;-79
2022/04/16 02:19:19;;;;;;;31.70;17.35;;;9.60;99.90;;;;;;5017396;28;20045;-79
2022/04/16 02:21:45;;;;;;;27.02;17.08;;;9.60;99.90;;;;;;5033752;28;20132;-79
2022/04/16 02:24:13;;;;;;;26.38;16.38;;;9.60;99.90;;;;;;5033652;28;20041;-78
2022/04/16 02:26:42;;;;;;;29.45;17.98;;;9.60;99.90;;;;;;5033995;28;20050;-79
2022/04/16 02:29:08;;;;;;;29.15;16.70;;;9.60;99.90;;;;;;5033856;28;20045;-79
2022/04/16 02:31:35;;;;;;;31.80;18.95;;;9.60;99.90;;;;;;5033754;28;20374;-79
2022/04/16 02:34:01;;;;;;;28.70;16.80;;;9.70;99.90;;;;;;5032958;28;20392;-79
2022/04/16 02:36:26;;;;;;;37.63;21.33;;;9.80;99.90;;;;;;5033539;28;20045;-79
2022/04/16 02:38:54;;;;;;;40.10;23.38;;;9.90;99.90;;;;;;5033426;28;20041;-79
2022/04/16 02:41:20;;;;;;;35.42;21.02;;;10.00;99.90;;;;;;5033344;28;20067;-79
2022/04/16 02:43:46;;;;;;;33.03;20.50;;;9.90;99.90;;;;;;5033465;28;20499;-79
2022/04/16 02:48:56;;;;;;;34.40;20.10;;;10.00;99.90;;;;;;5033629;28;20455;-79
2022/04/16 02:51:22;;;;;;;41.25;21.98;;;10.10;99.90;;;;;;5033851;28;20041;-79
2022/04/16 02:53:49;;;;;;;34.45;21.10;;;10.20;99.90;;;;;;5033342;28;20041;-79
2022/04/16 02:56:15;;;;;;;39.05;22.73;;;10.20;99.90;;;;;;5017094;28;20081;-79
2022/04/16 02:58:41;;;;;;;33.35;20.05;;;10.30;99.90;;;;;;5033188;28;20080;-79
2022/04/16 03:01:06;;;;;;;31.30;17.88;;;10.40;99.90;;;;;;5033326;28;20469;-79
2022/04/16 03:03:32;;;;;;;28.52;18.10;;;10.50;99.90;;;;;;5033240;28;20050;-79
2022/04/16 03:05:58;;;;;;;30.92;18.15;;;10.50;99.90;;;;;;5033229;28;20037;-79
2022/04/16 03:08:24;;;;;;;30.90;19.15;;;10.50;99.90;;;;;;5033350;28;20041;-79
2022/04/16 03:10:55;;;;;;;35.15;20.35;;;10.40;99.90;;;;;;5031928;28;20066;-79
2022/04/16 03:13:21;;;;;;;33.35;19.67;;;10.40;99.90;;;;;;5033166;28;20057;-79
2022/04/16 03:18:32;;;;;;;46.10;23.63;;;10.50;99.90;;;;;;5033214;28;20057;-80
2022/04/16 03:20:58;;;;;;;46.55;25.95;;;10.60;99.90;;;;;;5016666;28;20140;-79
2022/04/16 03:23:24;;;;;;;43.47;25.27;;;10.30;99.90;;;;;;5033079;28;20057;-79
2022/04/16 03:25:50;;;;;;;44.75;25.35;;;10.10;99.90;;;;;;5033050;28;20049;-79
2022/04/16 03:28:16;;;;;;;43.20;25.27;;;10.10;99.90;;;;;;5032787;28;20089;-79
2022/04/16 03:30:42;;;;;;;42.20;24.63;;;10.10;99.90;;;;;;5032938;28;20041;-79
2022/04/16 03:33:11;;;;;;;44.35;26.45;;;9.90;99.90;;;;;;5032741;28;20045;-79
2022/04/16 03:35:37;;;;;;;42.35;24.73;;;10.00;99.90;;;;;;5032942;28;20377;-79
2022/04/16 03:38:03;;;;;;;46.67;25.83;;;10.00;99.90;;;;;;5032540;28;20041;-79
2022/04/16 03:40:29;;;;;;;47.92;26.77;;;10.10;99.90;;;;;;5032351;28;20053;-79
2022/04/16 03:43:00;;;;;;;44.50;27.02;;;10.10;99.90;;;;;;5032726;28;20396;-79
2022/04/16 03:45:29;;;;;;;44.13;26.15;;;10.00;99.90;;;;;;5032495;28;20081;-79
2022/04/16 03:47:56;;;;;;;48.58;27.65;;;9.70;99.90;;;;;;5032893;28;20140;-78
2022/04/16 03:50:24;;;;;;;50.33;27.75;;;9.80;99.90;;;;;;5032670;28;20045;-79
2022/04/16 03:52:51;;;;;;;47.47;26.85;;;9.80;99.90;;;;;;5032358;28;20119;-79
2022/04/16 04:00:55;;;;;;;53.60;28.85;;;9.60;99.90;;;;;;5032309;28;20084;-79
2022/04/16 04:03:22;;;;;;;54.08;31.05;;;9.50;99.90;;;;;;5032199;28;20042;-79
2022/04/16 04:05:49;;;;;;;55.17;30.13;;;9.60;99.90;;;;;;5032546;28;20037;-79
2022/04/16 04:08:16;;;;;;;56.88;30.17;;;9.70;99.90;;;;;;5032429;28;20049;-79
2022/04/16 04:10:42;;;;;;;56.17;30.77;;;9.80;99.90;;;;;;5031938;28;20404;-79
2022/04/16 04:13:08;;;;;;;59.65;32.63;;;9.90;99.90;;;;;;5032493;28;20044;-79
2022/04/16 04:15:33;;;;;;;59.30;33.45;;;10.00;99.90;;;;;;5015859;28;20128;-79
2022/04/16 04:18:00;;;;;;;60.30;33.28;;;10.00;99.90;;;;;;5015903;28;20088;-79
2022/04/16 04:20:27;;;;;;;60.08;33.97;;;10.00;99.90;;;;;;5031993;28;20056;-79
2022/04/16 04:22:53;;;;;;;59.65;32.38;;;9.90;99.90;;;;;;5032384;28;20057;-79
2022/04/16 04:25:18;;;;;;;61.70;34.28;;;9.90;99.90;;;;;;5032267;28;20049;-79
2022/04/16 04:27:44;;;;;;;52.78;29.88;;;10.00;99.90;;;;;;5032300;28;20068;-79
2022/04/16 04:30:10;;;;;;;61.70;32.53;;;9.90;99.90;;;;;;5032066;28;20132;-79
2022/04/16 04:32:36;;;;;;;57.60;31.88;;;10.00;99.90;;;;;;5015824;28;20045;-79
2022/04/16 04:35:03;;;;;;;61.17;32.65;;;10.00;99.90;;;;;;5032241;28;20046;-79
2022/04/16 04:37:28;;;;;;;52.13;29.42;;;9.90;99.90;;;;;;5032069;28;20041;-79
2022/04/16 04:39:54;;;;;;;59.70;33.22;;;9.90;99.90;;;;;;5032177;28;20045;-79
2022/04/16 04:42:23;;;;;;;58.60;32.67;;;9.90;99.90;;;;;;5031821;28;20052;-79
2022/04/16 04:44:49;;;;;;;54.13;31.25;;;9.80;99.90;;;;;;5031635;28;20077;-79
2022/04/16 04:47:15;;;;;;;57.85;32.15;;;9.80;99.90;;;;;;5015417;28;20088;-79
2022/04/16 04:49:40;;;;;;;56.17;31.67;;;9.80;99.90;;;;;;5032231;28;20133;-79
2022/04/16 04:52:06;;;;;;;55.00;30.88;;;9.80;99.90;;;;;;5032029;28;20046;-79
2022/04/16 04:54:32;;;;;;;53.65;29.23;;;9.80;99.90;;;;;;5031973;28;20041;-79
2022/04/16 04:56:58;;;;;;;57.65;31.55;;;9.90;99.90;;;;;;5032044;28;20048;-79
2022/04/16 04:59:23;;;;;;;53.47;29.73;;;9.90;99.90;;;;;;5018746;28;20122;-79
2022/04/16 05:01:49;;;;;;;55.70;30.48;;;9.70;99.90;;;;;;5035672;28;20440;-79
2022/04/16 05:04:14;;;;;;;52.50;29.02;;;9.80;99.90;;;;;;5035525;28;20396;-79
2022/04/16 05:06:40;;;;;;;52.63;30.38;;;9.90;99.90;;;;;;5035652;28;20392;-79
2022/04/16 05:09:06;;;;;;;49.97;28.70;;;9.90;99.90;;;;;;5035426;28;20052;-79
2022/04/16 05:11:32;;;;;;;50.83;29.90;;;9.80;99.90;;;;;;5034669;28;20081;-80
2022/04/16 05:13:58;;;;;;;53.90;28.85;;;9.80;99.90;;;;;;5035385;28;20092;-79
2022/04/16 05:16:24;;;;;;;51.40;29.15;;;9.90;99.90;;;;;;5035264;28;20502;-79
2022/04/16 05:18:50;;;;;;;48.80;27.48;;;9.70;99.90;;;;;;5034985;28;20041;-80
2022/04/16 05:21:15;;;;;;;46.20;26.42;;;9.80;99.90;;;;;;5034916;28;20119;-79
2022/04/16 05:23:41;;;;;;;46.70;25.05;;;9.80;99.90;;;;;;5035063;28;20089;-79
2022/04/16 05:26:11;;;;;;;40.45;24.13;;;9.80;99.90;;;;;;5035106;28;20103;-79
2022/04/16 05:28:38;;;;;;;40.40;22.65;;;9.80;99.90;;;;;;5035040;28;20498;-79
2022/04/16 05:31:05;;;;;;;39.85;23.40;;;9.70;99.90;;;;;;5035021;28;20056;-79
2022/04/16 05:36:15;;;;;;;33.33;19.80;;;9.70;99.90;;;;;;5035283;28;20136;-79
2022/04/16 05:38:41;;;;;;;37.60;20.40;;;9.70;99.90;;;;;;5034550;28;20129;-79
2022/04/16 05:41:07;;;;;;;37.80;20.65;;;9.90;99.90;;;;;;5034497;28;20136;-79
2022/04/16 05:43:33;;;;;;;34.95;20.88;;;10.00;99.90;;;;;;5034841;28;20090;-79
2022/04/16 05:45:58;;;;;;;31.63;18.65;;;10.10;99.90;;;;;;5034695;28;20045;-79
2022/04/16 05:48:24;;;;;;;32.70;18.55;;;9.90;99.90;;;;;;5034709;28;20049;-79
2022/04/16 05:50:50;;;;;;;29.30;16.70;;;9.90;99.90;;;;;;5034645;28;20042;-79
2022/04/16 05:53:16;;;;;;;30.35;17.60;;;10.00;99.90;;;;;;5018165;28;20555;-79
2022/04/16 05:55:47;;;;;;;31.33;17.27;;;9.90;99.90;;;;;;5034490;28;20106;-79
2022/04/16 05:58:13;;;;;;;35.05;19.63;;;9.90;99.90;;;;;;5034538;28;20042;-79
2022/04/16 06:00:39;;;;;;;29.10;16.27;;;10.00;99.90;;;;;;5034403;28;20053;-79
2022/04/16 06:03:05;;;;;;;35.75;19.42;;;10.10;99.90;;;;;;5034289;28;20046;-79
2022/04/16 06:05:31;;;;;;;29.08;17.30;;;10.00;99.90;;;;;;5034232;28;20498;-79
2022/04/16 06:08:01;;;;;;;30.50;17.10;;;9.90;99.90;;;;;;5017959;28;20049;-79
2022/04/16 06:10:27;;;;;;;28.65;16.48;;;10.00;99.90;;;;;;5033871;28;20050;-79
2022/04/16 06:12:53;;;;;;;33.35;17.55;;;10.20;99.90;;;;;;5033797;28;20045;-79
2022/04/16 06:15:19;;;;;;;29.95;16.80;;;10.30;99.90;;;;;;5034125;28;20125;-79
2022/04/16 06:17:44;;;;;;;31.40;16.17;;;10.20;99.90;;;;;;5033980;28;20037;-79
2022/04/16 06:20:11;;;;;;;34.28;17.25;;;10.00;99.90;;;;;;5033782;28;20052;-78
2022/04/16 06:22:37;;;;;;;29.08;14.75;;;10.00;99.90;;;;;;5034018;28;20124;-79
2022/04/16 06:25:03;;;;;;;29.20;15.75;;;9.90;99.90;;;;;;5033695;28;20068;-79
2022/04/16 06:27:29;;;;;;;27.73;15.80;;;10.10;99.90;;;;;;5034037;28;20045;-79
2022/04/16 06:29:55;;;;;;;28.27;16.55;;;10.20;99.90;;;;;;5033858;28;20046;-79
2022/04/16 06:32:21;;;;;;;30.20;16.38;;;10.30;99.90;;;;;;5033991;28;20050;-79
2022/04/16 06:34:46;;;;;;;30.95;15.95;;;10.30;99.90;;;;;;5033946;28;20536;-79
2022/04/16 06:37:12;;;;;;;25.92;14.90;;;10.40;99.90;;;;;;5033567;28;20396;-79
2022/04/16 06:39:38;;;;;;;27.92;15.77;;;10.30;99.90;;;;;;5017335;28;20052;-79
2022/04/16 06:42:04;;;;;;;27.38;14.73;;;10.20;99.90;;;;;;5033411;28;20489;-78
2022/04/16 06:44:31;;;;;;;28.33;15.52;;;10.10;99.90;;;;;;5033846;28;20064;-71
2022/04/16 06:46:57;;;;;;;26.75;14.35;;;10.10;99.90;;;;;;5034649;28;20405;-71
2022/04/16 06:49:25;;;;;;;23.33;14.27;;;10.20;99.90;;;;;;5034758;28;20104;-71
2022/04/16 06:51:52;;;;;;;27.55;14.65;;;10.30;99.90;;;;;;5035975;28;20041;-71
2022/04/16 06:54:18;;;;;;;27.98;14.10;;;10.60;99.90;;;;;;5041013;28;20097;-71
2022/04/16 06:56:44;;;;;;;25.95;12.88;;;10.50;99.90;;;;;;5033668;28;20188;-75
2022/04/16 06:59:10;;;;;;;26.38;13.18;;;10.40;99.90;;;;;;5033073;28;20076;-71
2022/04/16 07:01:35;;;;;;;25.20;13.35;;;10.60;99.90;;;;;;5034275;28;20046;-71
2022/04/16 07:04:01;;;;;;;23.98;12.02;;;10.80;99.90;;;;;;5034294;28;20111;-71
2022/04/16 07:06:27;;;;;;;22.83;11.80;;;10.80;99.90;;;;;;5034104;28;20047;-72
2022/04/16 07:08:52;;;;;;;25.90;12.82;;;10.90;99.90;;;;;;5033195;28;20137;-71
2022/04/16 07:11:18;;;;;;;24.55;11.50;;;10.90;99.90;;;;;;5032597;28;20049;-71
2022/04/16 07:13:44;;;;;;;24.27;11.50;;;10.80;99.90;;;;;;5033028;28;20060;-71
2022/04/16 07:16:09;;;;;;;22.00;11.27;;;10.60;99.90;;;;;;5033249;28;20056;-71
2022/04/16 07:18:35;;;;;;;20.92;11.60;;;10.70;99.90;;;;;;5033960;28;20472;-71
2022/04/16 07:21:01;;;;;;;23.90;11.05;;;10.70;99.90;;;;;;5033602;28;20478;-72
2022/04/16 07:23:27;;;;;;;19.45;10.10;;;11.00;99.90;;;;;;5034197;28;20084;-74
2022/04/16 07:25:52;;;;;;;20.15;10.07;;;11.10;99.90;;;;;;5034250;28;20045;-70
2022/04/16 07:28:21;;;;;;;17.83;9.05;;;11.00;99.90;;;;;;5034009;28;20054;-71
2022/04/16 07:30:51;;;;;;;22.35;10.70;;;11.20;99.90;;;;;;5033033;28;20053;-71
2022/04/16 07:33:17;;;;;;;16.85;9.32;;;11.30;99.90;;;;;;5033937;28;20110;-71
2022/04/16 07:35:43;;;;;;;20.10;10.20;;;11.30;99.90;;;;;;5034167;28;20049;-73
2022/04/16 07:38:08;;;;;;;18.80;9.48;;;11.20;99.90;;;;;;5033315;28;20622;-72
2022/04/16 07:40:34;;;;;;;19.30;9.27;;;11.20;99.90;;;;;;5032733;28;20057;-72
2022/04/16 07:43:01;;;;;;;16.42;7.85;;;11.30;99.90;;;;;;5033506;28;20050;-72
2022/04/16 07:45:31;;;;;;;15.45;7.43;;;11.20;99.90;;;;;;5032643;28;20064;-72
2022/04/16 07:47:57;;;;;;;14.60;7.97;;;11.10;99.90;;;;;;5032624;28;20053;-72
2022/04/16 07:50:23;;;;;;;16.30;7.28;;;11.30;99.90;;;;;;5033591;28;20396;-72
2022/04/16 07:52:48;;;;;;;15.40;7.00;;;11.40;99.90;;;;;;5033692;28;20407;-72
2022/04/16 07:55:15;;;;;;;15.40;7.20;;;11.30;99.90;;;;;;5033691;28;20115;-72
2022/04/16 07:57:41;;;;;;;16.10;8.55;;;11.30;99.90;;;;;;5033448;28;20137;-72
2022/04/16 08:00:08;;;;;;;15.50;8.00;;;11.50;99.90;;;;;;5032778;28;20054;-72
2022/04/16 08:02:34;;;;;;;13.73;6.40;;;11.60;99.90;;;;;;5033477;28;20049;-72
2022/04/16 08:05:00;;;;;;;11.90;6.07;;;11.60;99.90;;;;;;5033462;28;20057;-72
2022/04/16 08:07:26;;;;;;;15.98;7.32;;;11.60;99.90;;;;;;5033436;28;20080;-72
2022/04/16 08:09:52;;;;;;;16.55;7.38;;;11.70;99.90;;;;;;5033145;28;20172;-72
2022/04/16 08:12:18;;;;;;;12.90;6.13;;;11.70;99.90;;;;;;5033177;28;20053;-72
2022/04/16 08:14:43;;;;;;;10.23;4.78;;;11.80;99.90;;;;;;5033464;28;20102;-72
2022/04/16 08:17:09;;;;;;;10.07;4.20;;;11.70;99.90;;;;;;5032306;28;20049;-72
2022/04/16 08:19:35;;;;;;;8.77;3.13;;;11.70;99.90;;;;;;5033265;28;20041;-72
2022/04/16 08:22:00;;;;;;;5.57;2.85;;;11.60;99.90;;;;;;5033291;28;20146;-73
2022/04/16 08:26:52;;;;;;;6.63;3.08;;;11.60;99.90;;;;;;5033115;28;20045;-68
2022/04/16 08:29:17;;;;;;;7.10;2.63;;;11.60;99.90;;;;;;5033251;28;20049;-70
2022/04/16 08:31:43;;;;;;;6.32;2.40;;;11.60;99.50;;;;;;5032907;28;20052;-68
2022/04/16 08:34:09;;;;;;;4.97;2.20;;;11.60;99.50;;;;;;5035683;28;20053;-69
2022/04/16 08:36:36;;;;;;;10.48;3.40;;;11.50;99.70;;;;;;5037051;28;20138;-68
2022/04/16 08:39:03;;;;;;;7.10;2.53;;;11.60;99.30;;;;;;5038015;28;20124;-70
2022/04/16 08:41:30;;;;;;;5.03;2.20;;;11.70;99.40;;;;;;5035562;28;20060;-70
2022/04/16 08:43:57;;;;;;;5.97;2.70;;;11.90;99.40;;;;;;5037061;28;20056;-68
2022/04/16 08:46:26;;;;;;;4.53;2.20;;;12.10;99.60;;;;;;5036860;28;20057;-69
2022/04/16 08:48:52;;;;;;;8.05;2.95;;;12.20;99.20;;;;;;5036461;28;20520;-69
2022/04/16 08:51:19;;;;;;;4.57;2.20;;;12.40;99.40;;;;;;5036584;28;20520;-68
2022/04/16 08:53:45;;;;;;;3.15;1.75;;;12.60;98.60;;;;;;5036711;28;20056;-69
2022/04/16 08:56:11;;;;;;;3.15;1.60;;;12.50;98.40;;;;;;5036711;28;20053;-69
2022/04/16 08:58:38;;;;;;;3.90;1.48;;;12.50;98.10;;;;;;5035557;28;20057;-69
2022/04/16 09:01:04;;;;;;;4.40;1.40;;;12.60;97.90;;;;;;5036665;28;20124;-69
2022/04/16 09:03:39;;;;;;;4.80;1.50;;;12.50;98.00;;;;;;5036590;28;20631;-71
2022/04/16 09:06:05;;;;;;;3.17;1.40;;;12.60;98.00;;;;;;5035386;28;20476;-71
2022/04/16 09:08:32;;;;;;;3.38;1.23;;;12.80;97.80;;;;;;5036496;28;20084;-84
2022/04/16 09:11:12;;;;;;;2.53;1.58;;;12.80;97.20;;;;;;5034686;28;20060;-83
2022/04/16 09:13:54;;;;;;;3.20;1.45;;;12.60;97.90;;;;;;5035463;28;20094;-83
2022/04/16 09:16:20;;;;;;;3.80;1.70;;;12.40;98.00;;;;;;5035776;28;20388;-83
2022/04/16 09:18:54;;;;;;;2.45;1.23;;;12.30;98.90;;;;;;5035097;28;20095;-84
2022/04/16 09:21:23;;;;;;;3.78;1.92;;;12.40;98.20;;;;;;5035382;28;20045;-83
2022/04/16 09:23:52;;;;;;;1.98;1.17;;;12.40;97.60;;;;;;5035315;28;20049;-91
2022/04/16 09:26:51;;;;;;;4.50;1.58;;;12.60;98.10;;;;;;5035749;28;20080;-70
2022/04/16 09:29:18;;;;;;;5.20;1.45;;;12.40;97.30;;;;;;5002470;28;20065;-70
2022/04/16 09:31:51;;;;;;;4.13;1.27;;;12.70;97.40;;;;;;5036054;28;20095;-70
2022/04/16 09:34:19;;;;;;;2.72;1.15;;;13.10;97.60;;;;;;5036148;28;20135;-70
2022/04/16 09:36:45;;;;;;;3.30;1.20;;;13.40;97.70;;;;;;5035589;28;20500;-71
2022/04/16 09:39:11;;;;;;;2.90;1.10;;;13.30;97.20;;;;;;5034696;28;20056;-70
2022/04/16 09:41:40;;;;;;;2.35;1.38;;;13.40;97.50;;;;;;5035379;28;20128;-70
2022/04/16 09:44:27;;;;;;;3.65;1.30;;;13.40;97.20;;;;;;5050948;28;20060;-70
2022/04/16 09:46:57;;;;;;;6.35;1.30;;;13.20;97.40;;;;;;5035772;28;20107;-71
2022/04/16 09:49:25;;;;;;;3.17;0.90;;;13.60;97.70;;;;;;5035763;28;20042;-70
2022/04/16 09:51:51;;;;;;;3.38;1.20;;;13.90;97.50;;;;;;5034428;28;20053;-70
2022/04/16 09:54:18;;;;;;;5.75;1.30;;;14.20;96.80;;;;;;5034606;28;20049;-70
2022/04/16 09:56:46;;;;;;;1.95;1.02;;;14.20;97.20;;;;;;5035699;28;20045;-70
2022/04/16 09:59:14;;;;;;;3.10;1.27;;;14.40;97.00;;;;;;5034311;28;20481;-70
2022/04/16 10:01:47;;;;;;;3.63;1.20;;;14.50;96.70;;;;;;5035532;28;20144;-70
2022/04/16 10:04:16;;;;;;;2.25;0.90;;;14.70;97.00;;;;;;5034681;28;20116;-70
2022/04/16 10:06:42;;;;;;;2.35;0.80;;;14.90;96.80;;;;;;5035491;28;20041;-86
2022/04/16 10:09:14;;;;;;;1.35;0.70;;;14.90;96.10;;;;;;5034217;28;20055;-69
2022/04/16 10:14:55;;;;;;;3.85;0.70;;;15.00;95.90;;;;;;5035866;28;20381;-73
2022/04/16 10:17:45;;;;;;;2.08;0.75;;;15.50;96.10;;;;;;5035420;28;20100;-73
2022/04/16 10:20:16;;;;;;;3.22;1.00;;;15.50;96.20;;;;;;5034371;28;20076;-73
2022/04/16 10:22:55;;;;;;;0.88;0.60;;;15.70;96.10;;;;;;5033879;28;20057;-73
2022/04/16 10:25:47;;;;;;;1.33;0.82;;;15.60;94.80;;;;;;5034151;28;20061;-73
2022/04/16 10:28:25;;;;;;;2.28;0.70;;;15.60;94.50;;;;;;5031603;28;20057;-73
2022/04/16 10:30:53;;;;;;;1.35;0.60;;;15.40;93.80;;;;;;5034927;28;20107;-73
2022/04/16 10:33:23;;;;;;;1.92;0.65;;;15.30;93.70;;;;;;5036221;28;20147;-71
2022/04/16 10:36:09;;;;;;;1.70;0.70;;;15.30;93.60;;;;;;5051955;28;20055;-71
2022/04/16 10:38:38;;;;;;;2.85;0.60;;;15.30;93.80;;;;;;5034762;28;20045;-70
2022/04/16 10:41:11;;;;;;;1.52;0.60;;;15.70;94.50;;;;;;5034421;28;20049;-72
2022/04/16 10:43:37;;;;;;;3.65;0.65;;;15.90;93.10;;;;;;5033674;28;20550;-71
2022/04/16 10:46:08;;;;;;;2.38;0.70;;;15.80;94.00;;;;;;5035064;28;20132;-71
2022/04/16 10:48:38;;;;;;;1.13;0.50;;;15.80;93.80;;;;;;5034698;28;20084;-71
2022/04/16 10:51:05;;;;;;;1.85;0.55;;;15.90;94.10;;;;;;5033909;28;20053;-71
2022/04/16 10:53:33;;;;;;;1.80;0.40;;;16.30;93.60;;;;;;5034147;28;20050;-70
2022/04/16 10:56:29;;;;;;;1.90;0.52;;;16.30;93.60;;;;;;5036378;28;20585;-72
2022/04/16 10:59:01;;;;;;;1.70;0.50;;;16.30;93.40;;;;;;5015736;28;20110;-72
2022/04/16 11:01:30;;;;;;;1.67;0.70;;;16.30;93.00;;;;;;5033365;28;20045;-72
2022/04/16 11:03:56;;;;;;;0.85;0.40;;;16.40;92.50;;;;;;5034625;28;20158;-71
2022/04/16 11:06:35;;;;;;;0.80;0.30;;;16.60;93.20;;;;;;5034328;28;20051;-95
2022/04/16 11:09:02;;;;;;;1.40;0.70;;;16.80;91.60;;;;;;5034283;28;20124;-72
2022/04/16 11:11:27;;;;;;;3.17;0.50;;;16.70;92.40;;;;;;5032453;28;20061;-73
2022/04/16 11:13:56;;;;;;;2.28;0.40;;;16.80;93.20;;;;;;5033152;28;20050;-73
2022/04/16 11:16:22;;;;;;;2.42;0.57;;;16.80;91.40;;;;;;5049647;28;20095;-75
2022/04/16 11:18:48;;;;;;;2.97;0.40;;;17.00;91.30;;;;;;5033948;28;20060;-72
2022/04/16 11:21:20;;;;;;;2.97;0.63;;;17.10;91.10;;;;;;5033969;28;20107;-73
2022/04/16 11:23:51;;;;;;;0.90;0.40;;;17.10;91.30;;;;;;5033647;28;20111;-72
2022/04/16 11:34:42;;;;;;;1.95;0.70;;;17.10;90.60;;;;;;5033935;28;20056;-72
2022/04/16 11:37:08;;;;;;;1.13;0.50;;;16.90;90.50;;;;;;5032845;28;20052;-71
2022/04/16 11:39:34;;;;;;;2.05;0.60;;;16.60;90.30;;;;;;5033773;28;20048;-72
2022/04/16 11:42:06;;;;;;;2.00;0.60;;;16.90;90.90;;;;;;5033109;28;20495;-72
2022/04/16 11:44:43;;;;;;;1.13;0.40;;;17.40;90.70;;;;;;5033713;28;20069;-72
2022/04/16 11:47:13;;;;;;;2.25;0.60;;;17.80;91.90;;;;;;5033759;28;20045;-71
2022/04/16 11:49:44;;;;;;;1.52;0.80;;;18.00;91.00;;;;;;5033689;28;20124;-70
2022/04/16 11:52:11;;;;;;;1.58;0.50;;;18.20;91.20;;;;;;5033609;28;20045;-74
2022/04/16 11:54:37;;;;;;;2.97;0.60;;;18.40;90.60;;;;;;5032891;28;20053;-71
2022/04/16 11:57:03;;;;;;;1.17;0.40;;;18.50;90.50;;;;;;5033565;28;20128;-77
2022/04/16 11:59:30;;;;;;;2.22;0.40;;;18.40;90.60;;;;;;5032224;28;20045;-72
2022/04/16 12:02:04;;;;;;;1.33;0.60;;;18.70;90.30;;;;;;5032712;28;20060;-72
2022/04/16 12:04:41;;;;;;;1.40;0.55;;;18.80;90.20;;;;;;5033559;28;20056;-81
2022/04/16 12:07:16;;;;;;;1.90;0.60;;;19.00;89.20;;;;;;5034482;28;20136;-74
2022/04/16 12:09:46;;;;;;;0.98;0.63;;;18.70;89.80;;;;;;5038356;28;20060;-80
2022/04/16 12:12:16;;;;;;;3.58;0.65;;;18.80;89.40;;;;;;5035699;28;20496;-79
2022/04/16 12:14:51;;;;;;;2.45;0.98;;;18.80;87.10;;;;;;5036754;28;20396;-76
2022/04/16 12:17:38;;;;;;;0.90;0.40;;;18.70;87.10;;;;;;5036524;28;20053;-78
2022/04/16 12:20:10;;;;;;;4.00;0.60;;;18.80;87.40;;;;;;5053189;28;20049;-78
2022/04/16 12:23:05;;;;;;;1.63;0.68;;;18.90;88.60;;;;;;5036367;28;20103;-78
2022/04/16 12:25:32;;;;;;;1.80;0.73;;;19.10;88.30;;;;;;5028175;28;20112;-77
2022/04/16 12:27:59;;;;;;;2.38;0.60;;;19.00;88.80;;;;;;5037244;28;20087;-72
2022/04/16 12:30:26;;;;;;;2.05;0.60;;;18.70;88.30;;;;;;5036432;28;20070;-73
2022/04/16 12:33:04;;;;;;;3.83;0.68;;;18.50;88.20;;;;;;5037172;28;20045;-91
2022/04/16 12:35:35;;;;;;;7.03;0.85;;;18.50;86.30;;;;;;5036640;28;20149;-86
2022/04/16 12:38:02;;;;;;;1.45;0.50;;;18.30;89.00;;;;;;5035996;28;20412;-82
2022/04/16 12:40:29;;;;;;;2.08;0.50;;;18.30;88.50;;;;;;5036048;28;20048;-82
2022/04/16 12:42:56;;;;;;;1.60;0.70;;;17.70;87.60;;;;;;5035829;28;20137;-74
2022/04/16 12:45:23;;;;;;;1.52;0.68;;;18.10;90.10;;;;;;5035987;28;20057;-74
2022/04/16 12:47:50;;;;;;;2.60;0.65;;;18.50;87.50;;;;;;5036015;28;20045;-74
2022/04/16 12:50:15;;;;;;;3.65;0.70;;;18.70;89.50;;;;;;5035868;28;20083;-74
2022/04/16 12:52:42;;;;;;;1.55;0.45;;;19.30;89.70;;;;;;5035737;28;20045;-74
2022/04/16 12:55:09;;;;;;;2.88;0.57;;;19.50;88.30;;;;;;5035699;28;20488;-89
2022/04/16 12:57:34;;;;;;;1.60;0.40;;;19.40;90.20;;;;;;5035692;28;20049;-74
2022/04/16 13:00:00;;;;;;;1.42;0.57;;;19.60;87.70;;;;;;5019266;28;20388;-73
2022/04/16 13:02:26;;;;;;;5.07;0.60;;;19.10;88.40;;;;;;5035566;28;20480;-74
2022/04/16 13:04:53;;;;;;;3.97;0.93;;;19.60;87.20;;;;;;5035676;28;20084;-73
2022/04/16 13:07:19;;;;;;;2.63;0.73;;;19.90;87.40;;;;;;5036465;28;20060;-74
2022/04/16 13:09:44;;;;;;;1.25;0.70;;;20.10;89.00;;;;;;5035521;28;20045;-72